createdAt,value
2023-03-12T00:01:22.781Z,56.53
2023-03-12T00:03:51.523Z,56.65
2023-03-12T00:06:21.184Z,56.52
2023-03-12T00:08:49.577Z,56.51
2023-03-12T00:11:21.015Z,56.60
2023-03-12T00:13:52.228Z,56.54
2023-03-12T00:16:21.614Z,56.51
2023-03-12T00:18:52.062Z,56.43
2023-03-12T00:21:22.399Z,56.42
2023-03-12T00:23:52.088Z,56.49
2023-03-12T00:26:21.622Z,56.42
2023-03-12T00:28:50.608Z,56.53
2023-03-12T00:31:27.812Z,56.62
2023-03-12T00:33:56.991Z,56.74
2023-03-12T00:36:29.816Z,56.88
2023-03-12T00:39:00.282Z,56.81
2023-03-12T00:41:30.376Z,56.88
2023-03-12T00:43:58.631Z,56.97
2023-03-12T00:46:26.912Z,56.88
2023-03-12T00:48:55.125Z,56.93
2023-03-12T00:51:23.348Z,56.84
2023-03-12T00:53:51.730Z,56.83
2023-03-12T00:56:20.018Z,56.52
2023-03-12T00:58:48.103Z,56.80
2023-03-12T01:01:16.321Z,56.87
2023-03-12T01:03:46.854Z,57.13
2023-03-12T01:06:15.032Z,57.03
2023-03-12T01:08:43.790Z,57.23
2023-03-12T01:11:17.323Z,57.09
2023-03-12T01:13:46.499Z,57.29
2023-03-12T01:16:14.755Z,57.55
2023-03-12T01:18:43.148Z,57.57
2023-03-12T01:21:11.443Z,57.45
2023-03-12T01:23:39.623Z,57.77
2023-03-12T01:26:07.782Z,57.52
2023-03-12T01:28:35.923Z,57.81
2023-03-12T01:31:10.074Z,57.91
2023-03-12T01:33:38.936Z,58.07
2023-03-12T01:36:18.247Z,58.16
2023-03-12T01:38:46.709Z,58.19
2023-03-12T01:41:15.245Z,58.74
2023-03-12T01:43:43.800Z,59.00
2023-03-12T01:46:33.497Z,58.93
2023-03-12T01:49:31.658Z,59.13
2023-03-12T01:52:07.591Z,59.93
2023-03-12T01:54:58.726Z,60.13
2023-03-12T01:57:39.802Z,60.21
2023-03-12T02:00:20.136Z,60.39
2023-03-12T02:02:51.007Z,60.67
2023-03-12T02:05:39.184Z,60.80
2023-03-12T02:08:07.493Z,60.57
2023-03-12T02:10:35.759Z,60.88
2023-03-12T02:13:04.006Z,60.57
2023-03-12T02:15:34.871Z,60.55
2023-03-12T02:18:09.749Z,60.48
2023-03-12T02:21:19.603Z,60.23
2023-03-12T02:24:03.187Z,60.21
2023-03-12T02:26:32.219Z,60.21
2023-03-12T02:29:01.631Z,60.28
2023-03-12T02:31:38.740Z,60.30
2023-03-12T02:34:09.235Z,60.41
2023-03-12T02:36:37.822Z,60.23
2023-03-12T02:39:06.291Z,60.36
2023-03-12T02:41:48.786Z,60.48
2023-03-12T02:44:21.117Z,60.33
2023-03-12T02:46:55.184Z,60.31
2023-03-12T02:49:27.683Z,60.33
2023-03-12T02:51:56.765Z,60.30
2023-03-12T02:54:25.534Z,60.16
2023-03-12T02:56:53.744Z,60.16
2023-03-12T02:59:26.071Z,60.07
2023-03-12T03:01:56.941Z,60.21
2023-03-12T03:04:26.991Z,60.24
2023-03-12T03:06:55.559Z,60.37
2023-03-12T03:09:24.754Z,60.35
2023-03-12T03:11:53.541Z,60.37
2023-03-12T03:14:23.271Z,60.18
2023-03-12T03:16:51.736Z,60.45
2023-03-12T03:19:21.631Z,60.34
2023-03-12T03:21:50.002Z,60.41
2023-03-12T03:24:18.420Z,60.21
2023-03-12T03:26:46.660Z,60.36
2023-03-12T03:29:15.330Z,60.17
2023-03-12T03:31:43.917Z,60.23
2023-03-12T03:34:12.708Z,60.34
2023-03-12T03:36:41.104Z,60.13
2023-03-12T03:39:12.619Z,60.06
2023-03-12T03:41:40.827Z,59.89
2023-03-12T03:44:09.284Z,59.79
2023-03-12T03:46:38.298Z,59.70
2023-03-12T03:49:08.589Z,59.70
2023-03-12T03:51:36.942Z,59.71
2023-03-12T03:54:09.808Z,59.71
2023-03-12T03:56:38.393Z,59.36
2023-03-12T03:59:07.503Z,59.48
2023-03-12T04:01:37.752Z,59.47
2023-03-12T04:04:05.965Z,59.21
2023-03-12T04:06:34.975Z,59.53
2023-03-12T04:09:03.424Z,59.25
2023-03-12T04:11:31.754Z,59.33
2023-03-12T04:13:59.979Z,59.44
2023-03-12T04:16:30.413Z,59.42
2023-03-12T04:18:58.705Z,59.18
2023-03-12T04:21:27.068Z,59.29
2023-03-12T04:23:55.333Z,59.16
2023-03-12T04:26:26.196Z,58.97
2023-03-12T04:28:54.724Z,58.60
2023-03-12T04:31:23.022Z,58.83
2023-03-12T04:33:52.118Z,58.86
2023-03-12T04:36:22.433Z,58.75
2023-03-12T04:38:51.237Z,58.80
2023-03-12T04:41:22.000Z,58.73
2023-03-12T04:43:54.248Z,58.62
2023-03-12T04:46:22.830Z,59.11
2023-03-12T04:48:51.106Z,58.93
2023-03-12T04:51:19.589Z,58.85
2023-03-12T04:53:47.735Z,58.98
2023-03-12T04:56:16.217Z,58.95
2023-03-12T04:58:44.561Z,59.33
2023-03-12T05:01:29.465Z,59.29
2023-03-12T05:03:58.059Z,59.21
2023-03-12T05:06:27.028Z,59.38
2023-03-12T05:08:57.348Z,59.49
2023-03-12T05:11:25.895Z,59.60
2023-03-12T05:13:54.217Z,59.67
2023-03-12T05:16:23.171Z,59.60
2023-03-12T05:18:51.414Z,59.69
2023-03-12T05:21:21.744Z,59.46
2023-03-12T05:23:52.149Z,59.51
2023-03-12T05:26:25.000Z,59.64
2023-03-12T05:28:55.290Z,59.51
2023-03-12T05:31:25.230Z,59.28
2023-03-12T05:33:54.552Z,59.27
2023-03-12T05:36:23.171Z,58.99
2023-03-12T05:38:52.050Z,58.65
2023-03-12T05:41:28.202Z,58.44
2023-03-12T05:43:59.890Z,58.82
2023-03-12T05:46:29.258Z,58.78
2023-03-12T05:48:57.841Z,58.37
2023-03-12T05:51:26.281Z,58.48
2023-03-12T05:53:54.408Z,58.31
2023-03-12T05:56:22.573Z,58.18
2023-03-12T05:58:51.404Z,58.35
2023-03-12T06:01:24.470Z,58.22
2023-03-12T06:03:53.603Z,58.11
2023-03-12T06:06:23.251Z,58.28
2023-03-12T06:08:52.257Z,57.84
2023-03-12T06:11:20.394Z,57.25
2023-03-12T06:13:49.263Z,56.92
2023-03-12T06:16:23.070Z,56.97
2023-03-12T06:19:01.436Z,56.80
2023-03-12T06:21:33.849Z,56.41
2023-03-12T06:24:03.123Z,55.35
2023-03-12T06:26:38.616Z,54.84
2023-03-12T06:29:06.804Z,54.65
2023-03-12T06:31:37.317Z,54.33
2023-03-12T06:34:06.898Z,54.31
2023-03-12T06:36:35.032Z,54.18
2023-03-12T06:39:06.388Z,54.08
2023-03-12T06:41:34.562Z,53.53
2023-03-12T06:44:06.031Z,53.83
2023-03-12T06:46:34.612Z,54.17
2023-03-12T06:49:03.036Z,53.04
2023-03-12T06:51:31.356Z,53.12
2023-03-12T06:54:02.416Z,52.91
2023-03-12T06:56:31.124Z,53.08
2023-03-12T06:58:59.306Z,52.22
2023-03-12T07:01:27.795Z,51.33
2023-03-12T07:03:55.983Z,50.66
2023-03-12T07:06:25.253Z,50.97
2023-03-12T07:08:53.625Z,50.56
2023-03-12T07:11:21.827Z,50.89
2023-03-12T07:13:49.959Z,50.33
2023-03-12T07:16:18.142Z,49.85
2023-03-12T07:18:46.553Z,50.27
2023-03-12T07:21:22.605Z,50.00
2023-03-12T07:23:51.555Z,49.48
2023-03-12T07:26:19.869Z,49.33
2023-03-12T07:28:48.014Z,49.57
2023-03-12T07:31:16.123Z,48.93
2023-03-12T07:33:44.430Z,49.75
2023-03-12T07:36:12.788Z,49.49
2023-03-12T07:38:41.124Z,49.47
2023-03-12T07:41:09.412Z,49.02
2023-03-12T07:43:37.622Z,49.34
2023-03-12T07:46:05.798Z,49.46
2023-03-12T07:48:33.936Z,49.34
2023-03-12T07:51:02.121Z,49.25
2023-03-12T07:53:30.304Z,49.07
2023-03-12T07:55:58.814Z,48.18
2023-03-12T07:58:27.169Z,47.67
2023-03-12T08:00:56.612Z,48.39
2023-03-12T08:03:25.041Z,48.60
2023-03-12T08:06:02.762Z,48.15
2023-03-12T08:08:32.480Z,48.62
2023-03-12T08:11:00.752Z,48.60
2023-03-12T08:13:29.004Z,48.44
2023-03-12T08:15:57.156Z,48.57
2023-03-12T08:18:26.151Z,48.88
2023-03-12T08:20:54.986Z,48.86
2023-03-12T08:23:23.510Z,49.16
2023-03-12T08:25:52.211Z,48.99
2023-03-12T08:28:22.846Z,48.73
2023-03-12T08:30:54.648Z,48.60
2023-03-12T08:33:22.933Z,48.53
2023-03-12T08:35:51.347Z,48.93
2023-03-12T08:38:20.210Z,49.24
2023-03-12T08:40:56.960Z,48.85
2023-03-12T08:43:28.514Z,48.10
2023-03-12T08:46:00.113Z,47.40
2023-03-12T08:48:30.530Z,47.75
2023-03-12T08:51:00.850Z,47.78
2023-03-12T08:53:28.960Z,47.68
2023-03-12T08:55:57.875Z,47.58
2023-03-12T08:58:27.118Z,47.06
2023-03-12T09:00:56.561Z,47.32
2023-03-12T09:03:26.093Z,47.15
2023-03-12T09:06:13.461Z,47.41
2023-03-12T09:08:42.718Z,47.16
2023-03-12T09:11:13.039Z,46.92
2023-03-12T09:14:03.927Z,46.66
2023-03-12T09:16:30.244Z,46.15
2023-03-12T09:18:58.415Z,46.25
2023-03-12T09:21:26.539Z,46.31
2023-03-12T09:23:54.709Z,46.73
2023-03-12T09:26:22.842Z,46.56
2023-03-12T09:28:50.992Z,46.11
2023-03-12T09:31:19.208Z,45.88
2023-03-12T09:33:47.357Z,46.50
2023-03-12T09:36:15.783Z,46.68
2023-03-12T09:38:43.983Z,45.90
2023-03-12T09:41:23.448Z,45.93
2023-03-12T09:44:40.228Z,45.86
2023-03-12T09:47:26.518Z,45.69
2023-03-12T09:50:16.133Z,44.79
2023-03-12T09:53:04.738Z,45.38
2023-03-12T09:55:40.205Z,44.55
2023-03-12T09:58:28.398Z,44.58
2023-03-12T10:01:31.654Z,45.25
2023-03-12T10:04:16.594Z,43.87
2023-03-12T10:07:19.060Z,43.29
2023-03-12T10:10:15.421Z,43.65
2023-03-12T10:13:09.403Z,44.20
2023-03-12T10:16:09.547Z,44.58
2023-03-12T10:18:56.603Z,44.71
2023-03-12T10:22:01.465Z,44.50
2023-03-12T10:25:12.848Z,44.37
2023-03-12T10:27:41.955Z,42.99
2023-03-12T10:30:25.853Z,42.89
2023-03-12T10:32:59.575Z,44.00
2023-03-12T10:35:30.623Z,43.90
2023-03-12T10:38:09.286Z,43.47
2023-03-12T10:40:39.054Z,43.71
2023-03-12T10:43:07.443Z,43.56
2023-03-12T10:45:41.616Z,43.10
2023-03-12T10:48:19.976Z,42.69
2023-03-12T10:51:09.495Z,42.79
2023-03-12T10:53:42.945Z,43.25
2023-03-12T10:56:21.994Z,43.01
2023-03-12T10:58:53.587Z,43.14
2023-03-12T11:01:29.415Z,43.35
2023-03-12T11:04:19.293Z,42.55
2023-03-12T11:07:12.715Z,41.70
2023-03-12T11:09:41.267Z,41.07
2023-03-12T11:12:31.096Z,41.70
2023-03-12T11:14:59.250Z,42.14
2023-03-12T11:17:29.826Z,42.44
2023-03-12T11:19:58.026Z,42.12
2023-03-12T11:22:35.193Z,42.38
2023-03-12T11:25:07.888Z,42.34
2023-03-12T11:27:46.994Z,41.65
2023-03-12T11:30:20.865Z,41.94
2023-03-12T11:32:50.754Z,41.50
2023-03-12T11:36:04.474Z,41.30
2023-03-12T11:38:43.406Z,41.16
2023-03-12T11:41:56.133Z,39.81
2023-03-12T11:44:46.171Z,37.39
2023-03-12T11:47:53.550Z,38.59
2023-03-12T11:50:52.294Z,38.39
2023-03-12T11:53:42.547Z,37.72
2023-03-12T11:56:29.810Z,38.59
2023-03-12T11:59:19.318Z,38.31
2023-03-12T12:02:37.851Z,36.29
2023-03-12T12:05:28.083Z,37.11
2023-03-12T12:08:24.850Z,36.94
2023-03-12T12:11:35.742Z,36.91
2023-03-12T12:14:16.011Z,38.01
2023-03-12T12:17:09.692Z,37.68
2023-03-12T12:19:56.514Z,38.19
2023-03-12T12:22:58.662Z,38.17
2023-03-12T12:26:10.712Z,37.90
2023-03-12T12:29:03.276Z,36.99
2023-03-12T12:31:46.458Z,37.34
2023-03-12T12:35:01.419Z,37.04
2023-03-12T12:37:58.598Z,37.35
2023-03-12T12:40:45.167Z,36.81
2023-03-12T12:43:37.012Z,37.43
2023-03-12T12:46:18.924Z,36.53
2023-03-12T12:48:57.962Z,35.40
2023-03-12T12:51:33.536Z,36.21
2023-03-12T12:54:43.717Z,37.01
2023-03-12T12:57:40.157Z,36.95
2023-03-12T13:00:33.249Z,36.78
2023-03-12T13:03:01.966Z,36.56
2023-03-12T13:05:57.940Z,37.48
2023-03-12T13:08:44.827Z,36.99
2023-03-12T13:11:19.757Z,37.67
2023-03-12T13:14:12.842Z,37.54
2023-03-12T13:16:46.766Z,38.36
2023-03-12T13:19:14.820Z,37.02
2023-03-12T13:22:07.639Z,36.27
2023-03-12T13:24:51.717Z,35.86
2023-03-12T13:27:39.190Z,35.74
2023-03-12T13:30:50.932Z,36.40
2023-03-12T13:33:36.364Z,37.00
2023-03-12T13:36:15.605Z,37.37
2023-03-12T13:39:05.864Z,36.67
2023-03-12T13:41:47.032Z,36.37
2023-03-12T13:44:27.405Z,36.82
2023-03-12T13:47:10.669Z,36.84
2023-03-12T13:49:56.914Z,36.97
2023-03-12T13:53:00.090Z,36.60
2023-03-12T13:55:34.488Z,36.53
2023-03-12T13:58:23.670Z,36.61
2023-03-12T14:01:05.934Z,36.51
2023-03-12T14:03:44.281Z,36.87
2023-03-12T14:06:25.004Z,37.06
2023-03-12T14:09:24.168Z,36.83
2023-03-12T14:12:07.018Z,36.54
2023-03-12T14:15:13.906Z,36.14
2023-03-12T14:17:44.082Z,35.67
2023-03-12T14:20:21.585Z,35.96
2023-03-12T14:23:05.053Z,36.07
2023-03-12T14:25:43.763Z,36.29
2023-03-12T14:28:20.769Z,36.00
2023-03-12T14:31:14.651Z,36.26
2023-03-12T14:34:22.456Z,36.33
2023-03-12T14:36:55.878Z,36.49
2023-03-12T14:39:50.659Z,36.65
2023-03-12T14:42:42.869Z,37.16
2023-03-12T14:45:19.193Z,37.11
2023-03-12T14:47:54.680Z,36.90
2023-03-12T14:50:24.867Z,37.28
2023-03-12T14:52:53.933Z,37.27
2023-03-12T14:55:26.131Z,37.78
2023-03-12T14:58:07.003Z,37.92
2023-03-12T15:00:35.355Z,38.04
2023-03-12T15:03:10.883Z,37.88
2023-03-12T15:05:39.468Z,37.78
2023-03-12T15:08:12.720Z,37.99
2023-03-12T15:10:43.173Z,37.71
2023-03-12T15:13:13.422Z,37.12
2023-03-12T15:15:49.826Z,36.94
2023-03-12T15:18:23.622Z,37.70
2023-03-12T15:20:53.791Z,37.53
2023-03-12T15:23:24.489Z,37.77
2023-03-12T15:26:15.796Z,38.07
2023-03-12T15:28:44.077Z,38.22
2023-03-12T15:31:17.485Z,38.47
2023-03-12T15:33:45.714Z,38.76
2023-03-12T15:36:19.929Z,38.56
2023-03-12T15:38:56.634Z,38.93
2023-03-12T15:41:43.003Z,39.05
2023-03-12T15:44:44.383Z,39.00
2023-03-12T15:47:20.553Z,38.93
2023-03-12T15:50:19.898Z,38.71
2023-03-12T15:53:25.750Z,38.62
2023-03-12T15:56:09.625Z,39.28
2023-03-12T15:58:42.071Z,38.98
2023-03-12T16:01:21.138Z,39.08
2023-03-12T16:03:49.359Z,38.99
2023-03-12T16:06:25.331Z,39.37
2023-03-12T16:09:03.423Z,39.35
2023-03-12T16:11:35.825Z,39.61
2023-03-12T16:14:16.349Z,39.44
2023-03-12T16:16:44.740Z,39.62
2023-03-12T16:19:19.778Z,39.40
2023-03-12T16:21:48.523Z,39.33
2023-03-12T16:24:17.157Z,39.37
2023-03-12T16:26:58.076Z,39.55
2023-03-12T16:29:33.703Z,39.90
2023-03-12T16:32:02.690Z,39.84
2023-03-12T16:34:30.801Z,40.04
2023-03-12T16:36:59.188Z,40.31
2023-03-12T16:39:32.979Z,40.53
2023-03-12T16:42:01.758Z,40.69
2023-03-12T16:44:34.977Z,40.61
2023-03-12T16:47:03.211Z,40.81
2023-03-12T16:49:31.324Z,40.66
2023-03-12T16:51:59.888Z,40.87
2023-03-12T16:54:28.157Z,41.08
2023-03-12T16:56:56.750Z,41.03
2023-03-12T16:59:28.367Z,41.27
2023-03-12T17:01:56.664Z,41.56
2023-03-12T17:04:24.825Z,41.54
2023-03-12T17:06:53.035Z,41.60
2023-03-12T17:09:21.146Z,41.51
2023-03-12T17:11:52.276Z,41.80
2023-03-12T17:14:22.783Z,42.06
2023-03-12T17:16:51.500Z,42.07
2023-03-12T17:19:19.767Z,42.41
2023-03-12T17:21:48.990Z,42.49
2023-03-12T17:24:17.100Z,42.85
2023-03-12T17:26:46.429Z,42.91
2023-03-12T17:29:14.567Z,43.02
2023-03-12T17:31:42.659Z,43.25
2023-03-12T17:34:10.812Z,43.48
2023-03-12T17:36:40.330Z,43.34
2023-03-12T17:39:08.461Z,43.67
2023-03-12T17:41:36.564Z,43.79
2023-03-12T17:44:07.051Z,43.92
2023-03-12T17:46:35.455Z,44.07
2023-03-12T17:49:04.230Z,44.12
2023-03-12T17:51:32.307Z,44.23
2023-03-12T17:54:00.500Z,44.27
2023-03-12T17:56:28.709Z,44.34
2023-03-12T17:58:56.907Z,44.49
2023-03-12T18:01:25.396Z,44.56
2023-03-12T18:03:53.600Z,44.72
2023-03-12T18:06:21.669Z,44.93
2023-03-12T18:08:49.764Z,45.06
2023-03-12T18:11:17.910Z,45.18
2023-03-12T18:13:48.426Z,45.39
2023-03-12T18:16:18.075Z,45.55
2023-03-12T18:18:46.231Z,45.54
2023-03-12T18:21:14.364Z,45.74
2023-03-12T18:23:43.890Z,45.84
2023-03-12T18:26:12.575Z,45.93
2023-03-12T18:28:40.687Z,46.11
2023-03-12T18:31:09.944Z,46.10
2023-03-12T18:33:38.927Z,46.32
2023-03-12T18:36:08.115Z,46.42
2023-03-12T18:38:36.488Z,46.61
2023-03-12T18:41:10.628Z,46.90
2023-03-12T18:43:40.251Z,46.76
2023-03-12T18:46:09.256Z,47.15
2023-03-12T18:48:37.425Z,47.26
2023-03-12T18:51:05.890Z,47.47
2023-03-12T18:53:33.999Z,47.50
2023-03-12T18:56:02.836Z,47.65
2023-03-12T18:58:30.947Z,47.71
2023-03-12T19:00:59.531Z,47.95
2023-03-12T19:03:27.788Z,48.21
2023-03-12T19:06:06.803Z,47.99
2023-03-12T19:08:37.402Z,48.22
2023-03-12T19:11:16.474Z,48.22
2023-03-12T19:13:44.701Z,48.09
2023-03-12T19:16:16.227Z,48.23
2023-03-12T19:18:44.366Z,48.22
2023-03-12T19:21:12.500Z,48.22
2023-03-12T19:23:40.782Z,48.41
2023-03-12T19:26:09.051Z,48.26
2023-03-12T19:28:37.631Z,48.40
2023-03-12T19:31:09.930Z,48.51
2023-03-12T19:33:38.148Z,48.59
2023-03-12T19:36:07.171Z,48.69
2023-03-12T19:38:35.324Z,49.05
2023-03-12T19:41:04.198Z,49.14
2023-03-12T19:43:32.350Z,49.21
2023-03-12T19:46:00.726Z,49.19
2023-03-12T19:48:28.947Z,49.39
2023-03-12T19:50:57.181Z,49.20
2023-03-12T19:53:26.692Z,49.50
2023-03-12T19:55:57.415Z,49.71
2023-03-12T19:58:25.637Z,49.50
2023-03-12T20:00:53.889Z,49.72
2023-03-12T20:03:23.205Z,49.85
2023-03-12T20:05:51.947Z,50.11
2023-03-12T20:08:21.041Z,50.19
2023-03-12T20:10:49.877Z,50.29
2023-03-12T20:13:17.996Z,50.34
2023-03-12T20:15:48.401Z,50.65
2023-03-12T20:18:16.943Z,50.60
2023-03-12T20:20:47.086Z,51.03
2023-03-12T20:23:15.261Z,50.95
2023-03-12T20:25:43.468Z,51.28
2023-03-12T20:28:11.791Z,51.17
2023-03-12T20:30:42.766Z,51.08
2023-03-12T20:33:10.958Z,51.52
2023-03-12T20:35:39.658Z,51.42
2023-03-12T20:38:08.363Z,51.40
2023-03-12T20:40:36.756Z,51.15
2023-03-12T20:43:05.956Z,51.45
2023-03-12T20:45:34.993Z,51.75
2023-03-12T20:48:03.241Z,51.88
2023-03-12T20:50:31.397Z,51.99
2023-03-12T20:52:59.777Z,52.04
2023-03-12T20:55:27.946Z,52.29
2023-03-12T20:57:56.078Z,52.01
2023-03-12T21:00:24.329Z,52.35
2023-03-12T21:02:52.585Z,52.42
2023-03-12T21:05:23.264Z,52.58
2023-03-12T21:07:54.037Z,52.83
2023-03-12T21:10:22.187Z,53.12
2023-03-12T21:12:50.373Z,53.57
2023-03-12T21:15:18.543Z,53.20
2023-03-12T21:17:46.737Z,53.35
2023-03-12T21:20:17.227Z,53.06
2023-03-12T21:22:46.896Z,53.18
2023-03-12T21:25:15.610Z,53.60
2023-03-12T21:27:50.580Z,53.30
2023-03-12T21:30:19.995Z,53.68
2023-03-12T21:32:48.354Z,54.02
2023-03-12T21:35:16.817Z,53.99
2023-03-12T21:37:44.969Z,54.16
2023-03-12T21:40:14.152Z,54.11
2023-03-12T21:42:42.545Z,54.09
2023-03-12T21:45:11.791Z,54.32
2023-03-12T21:47:41.373Z,54.23
2023-03-12T21:50:11.151Z,54.37
2023-03-12T21:52:43.149Z,54.17
2023-03-12T21:55:11.671Z,54.45
2023-03-12T21:57:39.828Z,54.70
2023-03-12T22:00:14.228Z,54.72
2023-03-12T22:02:44.741Z,55.07
2023-03-12T22:05:13.285Z,55.15
2023-03-12T22:07:41.424Z,55.53
2023-03-12T22:10:12.069Z,55.34
2023-03-12T22:12:40.703Z,55.27
2023-03-12T22:15:09.708Z,55.45
2023-03-12T22:17:37.850Z,55.35
2023-03-12T22:20:08.039Z,55.42
2023-03-12T22:22:36.312Z,55.33
2023-03-12T22:25:05.074Z,55.24
2023-03-12T22:27:33.253Z,55.52
2023-03-12T22:30:01.363Z,55.52
2023-03-12T22:32:29.598Z,55.66
2023-03-12T22:34:57.842Z,55.96
2023-03-12T22:37:25.972Z,55.78
2023-03-12T22:39:58.262Z,55.95
2023-03-12T22:42:26.437Z,56.02
2023-03-12T22:44:54.589Z,56.19
2023-03-12T22:47:23.381Z,56.30
2023-03-12T22:49:53.171Z,56.51
2023-03-12T22:52:21.288Z,56.68
2023-03-12T22:54:50.192Z,56.87
2023-03-12T22:57:18.302Z,56.71
2023-03-12T22:59:48.234Z,56.66
2023-03-12T23:02:16.584Z,56.60
2023-03-12T23:04:45.051Z,56.68
2023-03-12T23:07:15.826Z,56.84
2023-03-12T23:09:45.087Z,57.22
2023-03-12T23:12:13.239Z,57.21
2023-03-12T23:14:41.442Z,57.21
2023-03-12T23:17:09.654Z,57.24
2023-03-12T23:19:37.964Z,57.10
2023-03-12T23:22:07.470Z,57.21
2023-03-12T23:24:35.683Z,57.77
2023-03-12T23:27:05.032Z,57.68
2023-03-12T23:29:34.738Z,57.74
2023-03-12T23:32:03.105Z,57.55
2023-03-12T23:34:34.164Z,57.67
2023-03-12T23:37:02.479Z,57.78
2023-03-12T23:39:30.944Z,57.91
2023-03-12T23:41:59.509Z,57.67
2023-03-12T23:44:27.651Z,57.58
2023-03-12T23:46:55.794Z,57.90
2023-03-12T23:49:24.039Z,58.14
2023-03-12T23:51:52.186Z,58.33
2023-03-12T23:54:20.280Z,58.37
2023-03-12T23:56:48.427Z,58.37
2023-03-12T23:59:16.536Z,58.33
